createdAt,value
2019-03-06T00:02:08.395Z,23.87
2019-03-06T00:04:38.873Z,23.55
2019-03-06T00:07:08.829Z,23.67
2019-03-06T00:09:38.749Z,26.52
2019-03-06T00:12:08.776Z,22.22
2019-03-06T00:14:39.108Z,22.67
2019-03-06T00:17:09.354Z,21.77
2019-03-06T00:19:39.306Z,20.23
2019-03-06T00:22:09.319Z,18.27
2019-03-06T00:24:39.343Z,19.65
2019-03-06T00:27:09.348Z,19.48
2019-03-06T00:29:39.305Z,20.52
2019-03-06T00:32:09.322Z,21.12
2019-03-06T00:34:40.161Z,18.82
2019-03-06T00:37:10.235Z,21.23
2019-03-06T00:39:41.894Z,16.90
2019-03-06T00:42:11.940Z,17.50
2019-03-06T00:44:41.948Z,18.73
2019-03-06T00:47:11.981Z,19.37
2019-03-06T00:49:42.186Z,16.77
2019-03-06T00:52:12.207Z,16.90
2019-03-06T00:54:42.300Z,18.92
2019-03-06T00:57:12.399Z,15.28
2019-03-06T00:59:42.432Z,18.23
2019-03-06T01:02:12.472Z,19.77
2019-03-06T01:04:42.532Z,19.60
2019-03-06T01:07:12.581Z,19.35
2019-03-06T01:09:42.548Z,20.05
2019-03-06T01:12:14.424Z,17.92
2019-03-06T01:14:44.451Z,20.68
2019-03-06T01:17:14.516Z,19.98
2019-03-06T01:19:44.601Z,19.85
2019-03-06T01:22:15.749Z,19.25
2019-03-06T01:24:45.801Z,17.52
2019-03-06T01:27:15.993Z,22.15
2019-03-06T01:29:46.017Z,20.97
2019-03-06T01:32:16.054Z,21.62
2019-03-06T01:35:05.108Z,17.87
2019-03-06T01:37:36.817Z,22.62
2019-03-06T01:40:10.861Z,19.37
2019-03-06T01:42:42.661Z,21.27
2019-03-06T01:45:12.436Z,22.17
2019-03-06T01:47:42.418Z,19.25
2019-03-06T01:50:12.672Z,20.43
2019-03-06T01:52:42.673Z,23.55
2019-03-06T01:55:13.945Z,22.77
2019-03-06T01:57:43.980Z,23.35
2019-03-06T02:00:16.941Z,23.27
2019-03-06T02:02:46.964Z,26.82
2019-03-06T02:05:17.261Z,21.37
2019-03-06T02:07:47.337Z,21.90
2019-03-06T02:10:17.544Z,22.35
2019-03-06T02:12:48.685Z,20.72
2019-03-06T02:15:19.087Z,21.70
2019-03-06T02:17:49.214Z,22.00
2019-03-06T02:20:18.978Z,21.45
2019-03-06T02:22:48.627Z,21.35
2019-03-06T02:25:18.581Z,26.33
2019-03-06T02:27:48.645Z,22.27
2019-03-06T02:30:21.804Z,22.10
2019-03-06T02:32:51.849Z,23.92
2019-03-06T02:35:22.765Z,25.48
2019-03-06T02:37:52.810Z,24.18
2019-03-06T02:40:22.871Z,22.70
2019-03-06T02:42:52.901Z,22.52
2019-03-06T02:45:22.961Z,22.73
2019-03-06T02:47:53.004Z,28.55
2019-03-06T02:50:22.941Z,22.48
2019-03-06T02:52:52.651Z,25.00
2019-03-06T02:55:22.630Z,25.72
2019-03-06T02:58:10.700Z,28.52
2019-03-06T03:00:54.410Z,26.45
2019-03-06T03:03:26.113Z,26.77
2019-03-06T03:05:57.846Z,28.70
2019-03-06T03:08:27.895Z,29.12
2019-03-06T03:10:58.218Z,29.37
2019-03-06T03:13:28.232Z,23.22
2019-03-06T03:15:58.338Z,29.30
2019-03-06T03:18:28.455Z,30.23
2019-03-06T03:20:58.762Z,30.02
2019-03-06T03:23:28.897Z,28.15
2019-03-06T03:25:58.992Z,31.40
2019-03-06T03:28:29.015Z,28.77
2019-03-06T03:30:59.059Z,32.35
2019-03-06T03:33:29.904Z,31.15
2019-03-06T03:36:00.730Z,33.18
2019-03-06T03:38:31.745Z,29.82
2019-03-06T03:41:01.836Z,34.20
2019-03-06T03:43:31.469Z,30.10
2019-03-06T03:46:01.425Z,37.28
2019-03-06T03:48:31.465Z,33.63
2019-03-06T03:51:01.560Z,36.77
2019-03-06T03:53:31.259Z,37.73
2019-03-06T03:56:00.891Z,36.05
2019-03-06T03:58:30.943Z,40.05
2019-03-06T04:01:00.918Z,35.10
2019-03-06T04:03:31.021Z,36.68
2019-03-06T04:06:01.084Z,36.68
2019-03-06T04:08:32.078Z,41.10
2019-03-06T04:11:01.832Z,41.05
2019-03-06T04:13:31.801Z,37.58
2019-03-06T04:16:02.019Z,35.70
2019-03-06T04:18:32.044Z,38.30
2019-03-06T04:21:02.418Z,36.93
2019-03-06T04:23:32.462Z,35.30
2019-03-06T04:26:02.518Z,36.30
2019-03-06T04:28:32.525Z,29.67
2019-03-06T04:31:02.628Z,31.07
2019-03-06T04:33:32.851Z,29.63
2019-03-06T04:36:03.657Z,32.70
2019-03-06T04:38:33.655Z,29.10
2019-03-06T04:41:03.893Z,31.07
2019-03-06T04:43:33.967Z,27.40
2019-03-06T04:46:03.963Z,30.85
2019-03-06T04:48:33.930Z,29.57
2019-03-06T04:51:04.049Z,25.72
2019-03-06T04:53:34.320Z,29.18
2019-03-06T04:56:04.336Z,29.60
2019-03-06T04:58:34.987Z,30.37
2019-03-06T05:01:05.039Z,32.80
2019-03-06T05:03:35.084Z,27.87
2019-03-06T05:06:05.089Z,29.80
2019-03-06T05:08:36.058Z,27.45
2019-03-06T05:11:05.931Z,29.25
2019-03-06T05:13:36.036Z,31.73
2019-03-06T05:16:06.059Z,29.05
2019-03-06T05:18:40.338Z,31.50
2019-03-06T05:21:09.934Z,34.43
2019-03-06T05:23:39.969Z,28.45
2019-03-06T05:26:10.071Z,31.60
2019-03-06T05:28:40.087Z,31.25
2019-03-06T05:31:10.410Z,31.97
2019-03-06T05:33:40.332Z,34.23
2019-03-06T05:36:20.193Z,33.00
2019-03-06T05:38:51.337Z,34.50
2019-03-06T05:41:20.883Z,37.40
2019-03-06T05:43:50.462Z,31.50
2019-03-06T05:46:20.343Z,32.10
2019-03-06T05:48:50.491Z,33.28
2019-03-06T05:51:20.492Z,30.95
2019-03-06T05:53:50.518Z,36.03
2019-03-06T05:56:20.496Z,34.33
2019-03-06T05:58:50.520Z,33.70
2019-03-06T06:01:20.440Z,36.83
2019-03-06T06:03:50.590Z,34.33
2019-03-06T06:06:20.402Z,35.25
2019-03-06T06:08:49.919Z,34.45
2019-03-06T06:11:19.493Z,32.70
2019-03-06T06:13:49.736Z,32.50
2019-03-06T06:16:19.758Z,32.35
2019-03-06T06:18:49.494Z,32.70
2019-03-06T06:21:26.954Z,32.78
2019-03-06T06:23:58.283Z,32.03
2019-03-06T06:26:28.225Z,34.08
2019-03-06T06:28:58.256Z,33.42
2019-03-06T06:31:27.943Z,31.17
2019-03-06T06:33:57.519Z,38.45
2019-03-06T06:36:28.197Z,33.58
2019-03-06T06:38:57.871Z,35.90
2019-03-06T06:41:27.739Z,36.45
2019-03-06T06:43:57.422Z,34.08
2019-03-06T06:46:27.002Z,51.98
2019-03-06T06:48:57.264Z,35.63
2019-03-06T06:51:46.622Z,42.73
2019-03-06T06:54:19.666Z,36.63
2019-03-06T06:57:12.385Z,34.63
2019-03-06T06:59:53.763Z,44.00
2019-03-06T07:03:03.815Z,37.55
2019-03-06T07:05:35.188Z,30.95
2019-03-06T07:08:16.043Z,35.85
2019-03-06T07:11:02.526Z,33.48
2019-03-06T07:13:42.986Z,29.90
2019-03-06T07:16:32.055Z,30.68
2019-03-06T07:19:20.022Z,33.13
2019-03-06T07:21:51.646Z,34.15
2019-03-06T07:24:23.276Z,36.35
2019-03-06T07:27:20.476Z,37.33
2019-03-06T07:29:54.777Z,33.63
2019-03-06T07:32:26.395Z,33.45
2019-03-06T07:35:53.513Z,31.02
2019-03-06T07:38:24.591Z,22.00
2019-03-06T07:41:14.739Z,31.70
2019-03-06T07:43:46.420Z,27.85
2019-03-06T07:46:27.231Z,32.78
2019-03-06T07:49:15.577Z,32.17
2019-03-06T07:51:47.173Z,34.65
2019-03-06T07:54:18.856Z,29.35
2019-03-06T07:56:53.272Z,26.48
2019-03-06T07:59:23.287Z,29.57
2019-03-06T08:02:13.753Z,31.50
2019-03-06T08:04:54.311Z,27.27
2019-03-06T08:07:24.281Z,32.28
2019-03-06T08:09:56.971Z,32.95
2019-03-06T08:12:28.600Z,27.35
2019-03-06T08:15:09.685Z,26.68
2019-03-06T08:17:53.431Z,23.05
2019-03-06T08:20:40.327Z,28.95
2019-03-06T08:23:11.935Z,29.40
2019-03-06T08:25:44.178Z,27.80
2019-03-06T08:28:14.950Z,26.57
2019-03-06T08:30:49.498Z,26.52
2019-03-06T08:33:19.466Z,29.55
2019-03-06T08:35:49.488Z,23.92
2019-03-06T08:38:19.445Z,25.10
2019-03-06T08:40:50.183Z,25.72
2019-03-06T08:43:20.207Z,24.65
2019-03-06T08:45:54.699Z,25.52
2019-03-06T08:48:31.601Z,21.65
2019-03-06T08:51:12.464Z,25.72
2019-03-06T08:53:53.461Z,28.23
2019-03-06T08:56:37.367Z,28.00
2019-03-06T08:59:09.265Z,28.02
2019-03-06T09:01:59.734Z,21.52
2019-03-06T09:04:24.349Z,25.23
2019-03-06T09:06:56.186Z,22.70
2019-03-06T09:09:27.912Z,24.87
2019-03-06T09:12:08.551Z,25.57
2019-03-06T09:14:56.725Z,27.42
2019-03-06T09:17:28.383Z,22.17
2019-03-06T09:20:05.816Z,24.12
2019-03-06T09:22:46.319Z,22.70
2019-03-06T09:25:36.101Z,24.05
2019-03-06T09:28:13.909Z,23.92
2019-03-06T09:30:45.626Z,20.90
2019-03-06T09:33:17.211Z,19.60
2019-03-06T09:35:48.812Z,19.90
2019-03-06T09:38:36.954Z,20.92
2019-03-06T09:41:09.417Z,20.70
2019-03-06T09:43:56.349Z,20.12
2019-03-06T09:46:28.023Z,19.75
2019-03-06T09:49:16.963Z,21.62
2019-03-06T09:52:00.548Z,18.55
2019-03-06T09:54:35.918Z,19.65
2019-03-06T09:57:19.464Z,20.85
2019-03-06T09:59:59.833Z,21.17
2019-03-06T10:02:47.649Z,26.42
2019-03-06T10:05:34.377Z,19.62
2019-03-06T10:08:18.132Z,19.73
2019-03-06T10:10:57.282Z,18.77
2019-03-06T10:13:23.210Z,18.42
2019-03-06T10:16:11.304Z,20.90
2019-03-06T10:18:52.288Z,17.80
2019-03-06T10:21:22.367Z,17.52
2019-03-06T10:23:52.682Z,18.10
2019-03-06T10:26:23.000Z,12.50
2019-03-06T10:28:53.017Z,16.65
2019-03-06T10:31:23.059Z,18.30
2019-03-06T10:33:53.096Z,17.92
2019-03-06T10:36:23.150Z,15.43
2019-03-06T10:38:53.163Z,16.15
2019-03-06T10:41:25.618Z,15.20
2019-03-06T10:43:55.621Z,14.50
2019-03-06T10:46:25.662Z,19.82
2019-03-06T10:48:55.836Z,14.53
2019-03-06T10:51:26.090Z,16.48
2019-03-06T10:53:56.099Z,14.43
2019-03-06T10:56:26.323Z,15.43
2019-03-06T10:58:56.975Z,16.85
2019-03-06T11:01:27.175Z,14.73
2019-03-06T11:04:15.118Z,12.93
2019-03-06T11:06:45.516Z,13.83
2019-03-06T11:09:15.527Z,14.75
2019-03-06T11:11:45.546Z,15.85
2019-03-06T11:14:15.590Z,17.90
2019-03-06T11:16:45.611Z,19.82
2019-03-06T11:19:16.197Z,14.33
2019-03-06T11:21:46.270Z,11.08
2019-03-06T11:24:16.234Z,13.53
2019-03-06T11:26:46.601Z,13.65
2019-03-06T11:29:16.604Z,13.55
2019-03-06T11:31:46.801Z,14.65
2019-03-06T11:34:17.502Z,14.33
2019-03-06T11:36:47.776Z,11.83
2019-03-06T11:39:17.967Z,11.08
2019-03-06T11:41:48.851Z,14.25
2019-03-06T11:44:18.876Z,17.27
2019-03-06T11:46:48.945Z,16.93
2019-03-06T11:49:18.982Z,13.62
2019-03-06T11:51:49.168Z,13.43
2019-03-06T11:54:20.991Z,13.72
2019-03-06T11:56:50.944Z,14.38
2019-03-06T11:59:21.368Z,14.15
2019-03-06T12:01:51.453Z,14.80
2019-03-06T12:04:21.484Z,15.30
2019-03-06T12:06:51.545Z,13.98
2019-03-06T12:09:26.910Z,13.35
2019-03-06T12:12:00.124Z,12.55
2019-03-06T12:14:30.615Z,13.98
2019-03-06T12:17:00.903Z,12.93
2019-03-06T12:19:30.970Z,13.88
2019-03-06T12:22:01.318Z,11.73
2019-03-06T12:24:31.406Z,10.25
2019-03-06T12:27:01.414Z,12.37
2019-03-06T12:29:31.473Z,12.47
2019-03-06T12:32:01.623Z,11.85
2019-03-06T12:34:31.679Z,13.60
2019-03-06T12:37:01.685Z,13.18
2019-03-06T12:39:32.077Z,11.18
2019-03-06T12:42:02.830Z,12.43
2019-03-06T12:44:34.088Z,12.98
2019-03-06T12:47:04.262Z,10.35
2019-03-06T12:49:34.332Z,9.75
2019-03-06T12:52:04.475Z,9.18
2019-03-06T12:54:34.485Z,11.40
2019-03-06T12:57:04.850Z,8.73
2019-03-06T12:59:34.777Z,9.48
2019-03-06T13:02:04.724Z,10.13
2019-03-06T13:04:34.690Z,8.58
2019-03-06T13:07:04.714Z,7.47
2019-03-06T13:09:34.792Z,11.63
2019-03-06T13:12:04.366Z,8.77
2019-03-06T13:14:33.990Z,9.20
2019-03-06T13:17:03.692Z,9.97
2019-03-06T13:19:33.256Z,7.73
2019-03-06T13:22:11.074Z,6.43
2019-03-06T13:24:38.671Z,7.53
2019-03-06T13:27:08.580Z,8.30
2019-03-06T13:29:38.300Z,6.40
2019-03-06T13:32:11.798Z,10.53
2019-03-06T13:34:39.685Z,7.47
2019-03-06T13:37:09.379Z,6.30
2019-03-06T13:39:41.119Z,6.20
2019-03-06T13:42:12.619Z,8.40
2019-03-06T13:44:42.398Z,10.17
2019-03-06T13:47:14.114Z,8.30
2019-03-06T13:49:43.925Z,7.30
2019-03-06T13:52:13.999Z,7.57
2019-03-06T13:54:43.696Z,6.87
2019-03-06T13:57:14.081Z,6.87
2019-03-06T13:59:43.844Z,5.43
2019-03-06T14:02:14.679Z,5.30
2019-03-06T14:04:44.423Z,6.20
2019-03-06T14:07:14.434Z,4.90
2019-03-06T14:09:44.144Z,5.63
2019-03-06T14:12:14.128Z,6.00
2019-03-06T14:14:43.905Z,8.00
2019-03-06T14:17:13.608Z,5.50
2019-03-06T14:19:43.340Z,5.80
2019-03-06T14:22:12.964Z,4.30
2019-03-06T14:24:42.729Z,4.97
2019-03-06T14:27:12.664Z,4.93
2019-03-06T14:29:42.356Z,6.93
2019-03-06T14:32:14.930Z,7.00
2019-03-06T14:34:43.581Z,5.93
2019-03-06T14:37:13.341Z,4.67
2019-03-06T14:39:43.035Z,3.97
2019-03-06T14:42:13.580Z,7.27
2019-03-06T14:44:43.307Z,4.97
2019-03-06T14:47:14.643Z,4.23
2019-03-06T14:49:44.350Z,5.93
2019-03-06T14:52:14.078Z,6.53
2019-03-06T14:54:44.348Z,5.40
2019-03-06T14:57:14.237Z,6.73
2019-03-06T14:59:43.945Z,4.90
2019-03-06T15:02:14.007Z,3.10
2019-03-06T15:04:43.952Z,5.93
2019-03-06T15:07:13.644Z,5.20
2019-03-06T15:09:43.421Z,4.23
2019-03-06T15:12:13.283Z,4.53
2019-03-06T15:14:42.980Z,6.67
2019-03-06T15:17:12.903Z,6.10
2019-03-06T15:19:42.606Z,6.40
2019-03-06T15:22:11.970Z,4.13
2019-03-06T15:24:41.999Z,5.17
2019-03-06T15:27:11.909Z,4.57
2019-03-06T15:29:42.122Z,5.28
2019-03-06T15:32:12.111Z,8.03
2019-03-06T15:34:42.253Z,5.90
2019-03-06T15:37:12.306Z,7.28
2019-03-06T15:39:48.127Z,6.97
2019-03-06T15:42:13.596Z,4.75
2019-03-06T15:44:43.595Z,5.67
2019-03-06T15:47:13.703Z,6.67
2019-03-06T15:49:43.372Z,6.03
2019-03-06T15:52:13.286Z,8.85
2019-03-06T15:54:43.298Z,9.50
2019-03-06T15:57:15.666Z,6.45
2019-03-06T15:59:45.673Z,11.12
2019-03-06T16:02:15.955Z,11.53
2019-03-06T16:04:46.030Z,15.38
2019-03-06T16:07:17.470Z,11.57
2019-03-06T16:09:48.617Z,8.78
2019-03-06T16:12:18.221Z,16.27
2019-03-06T16:14:49.440Z,9.45
2019-03-06T16:17:21.191Z,11.15
2019-03-06T16:19:51.111Z,13.78
2019-03-06T16:22:22.095Z,12.40
2019-03-06T16:24:52.463Z,10.50
2019-03-06T16:27:22.528Z,10.08
2019-03-06T16:29:52.540Z,13.62
2019-03-06T16:32:22.484Z,16.42
2019-03-06T16:34:52.623Z,9.10
2019-03-06T16:37:22.690Z,20.90
2019-03-06T16:39:52.702Z,12.37
2019-03-06T16:42:23.506Z,15.90
2019-03-06T16:44:53.524Z,17.55
2019-03-06T16:47:23.943Z,18.05
2019-03-06T16:49:54.016Z,15.35
2019-03-06T16:52:24.062Z,16.52
2019-03-06T16:54:54.168Z,50.92
2019-03-06T16:57:24.223Z,18.30
2019-03-06T16:59:54.127Z,52.93
2019-03-06T17:02:24.152Z,18.10
2019-03-06T17:04:54.328Z,17.00
2019-03-06T17:07:24.478Z,19.12
2019-03-06T17:09:54.502Z,14.93
2019-03-06T17:12:24.593Z,15.43
2019-03-06T17:14:54.604Z,18.80
2019-03-06T17:17:24.728Z,17.98
2019-03-06T17:19:54.927Z,19.90
2019-03-06T17:22:25.263Z,22.93
2019-03-06T17:24:54.979Z,19.32
2019-03-06T17:27:25.310Z,24.02
2019-03-06T17:29:55.507Z,25.77
2019-03-06T17:32:25.520Z,25.70
2019-03-06T17:34:55.511Z,27.90
2019-03-06T17:37:25.770Z,22.85
2019-03-06T17:39:56.034Z,23.60
2019-03-06T17:42:26.254Z,28.12
2019-03-06T17:44:57.125Z,32.48
2019-03-06T17:47:27.246Z,24.40
2019-03-06T17:49:57.258Z,28.87
2019-03-06T17:52:27.014Z,29.40
2019-03-06T17:54:58.353Z,30.40
2019-03-06T17:57:28.386Z,31.00
2019-03-06T17:59:58.451Z,36.80
2019-03-06T18:02:29.430Z,35.65
2019-03-06T18:04:59.390Z,36.90
2019-03-06T18:07:29.702Z,36.08
2019-03-06T18:09:59.734Z,43.78
2019-03-06T18:12:29.778Z,40.88
2019-03-06T18:14:59.545Z,45.75
2019-03-06T18:17:29.216Z,44.48
2019-03-06T18:19:59.323Z,46.90
2019-03-06T18:22:29.013Z,52.65
2019-03-06T18:24:58.637Z,50.33
2019-03-06T18:27:28.606Z,53.10
2019-03-06T18:29:58.590Z,58.08
2019-03-06T18:32:28.615Z,49.67
2019-03-06T18:34:58.620Z,56.37
2019-03-06T18:37:28.556Z,55.88
2019-03-06T18:39:58.531Z,52.43
2019-03-06T18:42:28.608Z,50.63
2019-03-06T18:44:58.600Z,54.60
2019-03-06T18:47:28.428Z,58.87
2019-03-06T18:49:58.615Z,52.95
2019-03-06T18:52:28.635Z,60.38
2019-03-06T18:54:58.784Z,66.82
2019-03-06T18:57:28.907Z,77.30
2019-03-06T18:59:59.066Z,77.22
2019-03-06T19:02:29.198Z,77.42
2019-03-06T19:04:59.411Z,85.65
2019-03-06T19:07:29.453Z,71.50
2019-03-06T19:09:59.465Z,84.28
2019-03-06T19:12:30.602Z,87.15
2019-03-06T19:15:01.663Z,82.08
2019-03-06T19:17:33.524Z,89.07
2019-03-06T19:20:03.781Z,93.27
2019-03-06T19:22:33.824Z,94.47
2019-03-06T19:25:06.235Z,97.50
2019-03-06T19:27:36.533Z,77.58
2019-03-06T19:30:15.248Z,77.55
2019-03-06T19:32:46.654Z,81.63
2019-03-06T19:35:17.811Z,96.45
2019-03-06T19:37:47.426Z,81.87
2019-03-06T19:40:17.584Z,88.62
2019-03-06T19:42:47.917Z,87.05
2019-03-06T19:45:20.299Z,91.05
2019-03-06T19:47:51.433Z,109.20
2019-03-06T19:50:25.411Z,99.32
2019-03-06T19:52:56.869Z,93.25
2019-03-06T19:55:26.864Z,105.45
2019-03-06T19:58:05.355Z,96.97
2019-03-06T20:00:36.031Z,102.85
2019-03-06T20:03:06.805Z,90.47
2019-03-06T20:05:41.141Z,90.92
2019-03-06T20:08:15.245Z,89.35
2019-03-06T20:10:45.291Z,85.85
2019-03-06T20:13:15.131Z,99.58
2019-03-06T20:15:45.053Z,92.47
2019-03-06T20:18:15.064Z,103.60
2019-03-06T20:20:45.441Z,86.85
2019-03-06T20:23:15.875Z,98.25
2019-03-06T20:25:46.183Z,99.40
2019-03-06T20:28:16.616Z,99.92
2019-03-06T20:30:46.724Z,98.75
2019-03-06T20:33:16.742Z,99.35
2019-03-06T20:35:46.824Z,93.07
2019-03-06T20:38:16.900Z,92.88
2019-03-06T20:40:49.124Z,97.37
2019-03-06T20:43:19.262Z,104.60
2019-03-06T20:45:49.296Z,93.33
2019-03-06T20:48:19.724Z,100.22
2019-03-06T20:50:49.764Z,91.90
2019-03-06T20:53:19.820Z,99.70
2019-03-06T20:55:49.877Z,101.05
2019-03-06T20:58:20.233Z,105.60
2019-03-06T21:00:51.346Z,107.25
2019-03-06T21:03:22.059Z,101.12
2019-03-06T21:05:52.521Z,95.60
2019-03-06T21:08:22.571Z,109.60
2019-03-06T21:10:52.774Z,111.35
2019-03-06T21:13:22.799Z,109.17
2019-03-06T21:15:52.852Z,113.80
2019-03-06T21:18:22.885Z,103.27
2019-03-06T21:20:52.928Z,102.90
2019-03-06T21:23:22.954Z,104.83
2019-03-06T21:25:53.295Z,97.85
2019-03-06T21:28:23.368Z,105.47
2019-03-06T21:30:53.491Z,99.87
2019-03-06T21:33:23.522Z,108.37
2019-03-06T21:35:53.924Z,102.60
2019-03-06T21:38:25.095Z,103.50
2019-03-06T21:40:55.349Z,110.68
2019-03-06T21:43:25.365Z,106.60
2019-03-06T21:45:55.399Z,98.12
2019-03-06T21:48:25.574Z,101.87
2019-03-06T21:50:56.129Z,101.35
2019-03-06T21:53:26.168Z,106.15
2019-03-06T21:55:56.240Z,103.27
2019-03-06T21:58:26.281Z,95.47
2019-03-06T22:00:56.338Z,100.25
2019-03-06T22:03:26.358Z,105.40
2019-03-06T22:05:56.523Z,107.30
2019-03-06T22:08:26.534Z,100.97
2019-03-06T22:10:57.118Z,101.78
2019-03-06T22:13:27.136Z,94.83
2019-03-06T22:15:57.712Z,98.27
2019-03-06T22:18:27.836Z,89.17
2019-03-06T22:20:58.602Z,90.62
2019-03-06T22:23:29.277Z,88.05
2019-03-06T22:25:59.242Z,90.65
2019-03-06T22:28:29.311Z,84.07
2019-03-06T22:30:59.632Z,96.50
2019-03-06T22:33:29.369Z,96.50
2019-03-06T22:35:59.260Z,91.53
2019-03-06T22:38:29.295Z,92.60
2019-03-06T22:40:59.363Z,87.22
2019-03-06T22:43:29.379Z,99.07
2019-03-06T22:45:59.711Z,94.85
2019-03-06T22:48:29.319Z,92.78
2019-03-06T22:50:59.231Z,89.42
2019-03-06T22:53:29.727Z,100.80
2019-03-06T22:55:59.768Z,97.40
2019-03-06T22:58:29.806Z,105.67
2019-03-06T23:01:04.003Z,103.17
2019-03-06T23:03:35.120Z,113.65
2019-03-06T23:06:06.016Z,107.75
2019-03-06T23:08:36.086Z,109.92
2019-03-06T23:11:06.367Z,108.97
2019-03-06T23:13:37.379Z,105.12
2019-03-06T23:16:07.383Z,110.00
2019-03-06T23:18:37.084Z,105.87
2019-03-06T23:21:07.042Z,104.63
2019-03-06T23:23:36.751Z,97.78
2019-03-06T23:26:06.370Z,96.20
2019-03-06T23:28:36.321Z,95.87
2019-03-06T23:31:06.491Z,82.62
2019-03-06T23:33:36.839Z,86.15
2019-03-06T23:36:06.873Z,89.70
2019-03-06T23:38:36.992Z,106.87
2019-03-06T23:41:07.100Z,94.10
2019-03-06T23:43:37.103Z,82.17
2019-03-06T23:46:07.117Z,85.65
2019-03-06T23:48:37.323Z,70.55
2019-03-06T23:51:09.525Z,76.62
2019-03-06T23:53:50.348Z,72.85
2019-03-06T23:56:20.446Z,67.55
2019-03-06T23:58:51.091Z,69.27
